Private Wetterstation Sandau
Wetterdaten: Samstag, 15.09.2012
Datum Zeit Temp. A. Feuchte A. Luftdruck Regen Wind Richtung Richtung Taupunkt Windchill
15.09.2012 00:01 12,8 C 84 % 1008,6 hPa 0,0 l/m 12,2 km/h (2 Bft) W 270 10,2 C 12,8 C
15.09.2012 00:06 12,7 C 84 % 1008,6 hPa 0,0 l/m 13,7 km/h (3 Bft) W-SW 247 10,1 C 12,7 C
15.09.2012 00:11 12,7 C 84 % 1008,6 hPa 0,0 l/m 7,6 km/h (2 Bft) W 270 10,1 C 12,7 C
15.09.2012 00:16 12,7 C 84 % 1008,5 hPa 0,0 l/m 14,8 km/h (3 Bft) W-SW 247 10,1 C 12,7 C
15.09.2012 00:21 12,6 C 84 % 1008,6 hPa 0,0 l/m 11,2 km/h (2 Bft) W 270 10,0 C 12,6 C
15.09.2012 00:26 12,5 C 84 % 1008,5 hPa 0,0 l/m 14,0 km/h (3 Bft) W-SW 247 9,9 C 12,5 C
15.09.2012 00:31 12,4 C 84 % 1008,7 hPa 0,0 l/m 6,5 km/h (2 Bft) W 270 9,8 C 12,4 C
15.09.2012 00:36 12,3 C 85 % 1008,7 hPa 0,0 l/m 8,6 km/h (2 Bft) W 270 9,9 C 12,3 C
15.09.2012 00:41 12,3 C 85 % 1008,7 hPa 0,0 l/m 5,0 km/h (1 Bft) W 270 9,9 C 12,3 C
15.09.2012 00:46 12,2 C 85 % 1008,8 hPa 0,0 l/m 19,8 km/h (3 Bft) W 270 9,8 C 12,2 C
15.09.2012 00:51 12,2 C 85 % 1008,8 hPa 0,0 l/m 14,8 km/h (3 Bft) W 270 9,8 C 12,2 C
15.09.2012 00:56 12,1 C 86 % 1008,8 hPa 0,0 l/m 13,3 km/h (3 Bft) W-SW 247 9,8 C 12,1 C
15.09.2012 01:01 12,1 C 86 % 1008,9 hPa 0,0 l/m 12,2 km/h (2 Bft) SW 225 9,8 C 12,1 C
15.09.2012 01:06 12,1 C 87 % 1009,0 hPa 0,0 l/m 11,9 km/h (2 Bft) W-SW 247 10,0 C 12,1 C
15.09.2012 01:11 12,1 C 87 % 1009,1 hPa 0,0 l/m 7,6 km/h (2 Bft) W 270 10,0 C 12,1 C
15.09.2012 01:16 12,1 C 87 % 1009,1 hPa 0,0 l/m 5,4 km/h (1 Bft) W 270 10,0 C 12,1 C
15.09.2012 01:21 12,0 C 87 % 1009,1 hPa 0,0 l/m 10,1 km/h (2 Bft) W 270 9,9 C 12,0 C
15.09.2012 01:26 12,0 C 87 % 1009,2 hPa 0,0 l/m 4,0 km/h (1 Bft) W 270 9,9 C 12,0 C
15.09.2012 01:31 12,0 C 87 % 1009,3 hPa 0,0 l/m 10,1 km/h (2 Bft) W-SW 247 9,9 C 12,0 C
15.09.2012 01:36 12,0 C 87 % 1009,4 hPa 0,0 l/m 12,2 km/h (2 Bft) W 270 9,9 C 12,0 C
15.09.2012 01:41 12,1 C 87 % 1009,4 hPa 0,0 l/m 16,9 km/h (3 Bft) W-NW 292 10,0 C 12,1 C
15.09.2012 01:46 12,1 C 87 % 1009,3 hPa 0,0 l/m 6,5 km/h (2 Bft) W 270 10,0 C 12,1 C
15.09.2012 01:51 12,1 C 87 % 1009,4 hPa 0,0 l/m 9,7 km/h (2 Bft) W-SW 247 10,0 C 12,1 C
15.09.2012 01:56 12,2 C 87 % 1009,5 hPa 0,0 l/m 15,5 km/h (3 Bft) W-SW 247 10,1 C 12,2 C
15.09.2012 02:01 12,2 C 87 % 1009,5 hPa 0,0 l/m 12,6 km/h (3 Bft) W-SW 247 10,1 C 12,2 C
15.09.2012 02:06 12,2 C 87 % 1009,6 hPa 0,0 l/m 12,2 km/h (2 Bft) W-NW 292 10,1 C 12,2 C
15.09.2012 02:11 12,2 C 87 % 1009,7 hPa 0,0 l/m 2,5 km/h (1 Bft) W-NW 292 10,1 C 12,2 C
15.09.2012 02:16 12,2 C 87 % 1009,6 hPa 0,0 l/m 10,1 km/h (2 Bft) W-NW 292 10,1 C 12,2 C
15.09.2012 02:21 12,2 C 87 % 1009,8 hPa 0,0 l/m 5,0 km/h (1 Bft) W 270 10,1 C 12,2 C
15.09.2012 02:26 12,2 C 87 % 1009,8 hPa 0,0 l/m 9,7 km/h (2 Bft) W-NW 292 10,1 C 12,2 C
15.09.2012 02:31 12,2 C 87 % 1009,9 hPa 0,0 l/m 5,0 km/h (1 Bft) W-SW 247 10,1 C 12,2 C
15.09.2012 02:36 12,2 C 87 % 1009,9 hPa 0,0 l/m 5,0 km/h (1 Bft) W 270 10,1 C 12,2 C
15.09.2012 02:41 12,1 C 87 % 1010,0 hPa 0,0 l/m 9,4 km/h (2 Bft) W 270 10,0 C 12,1 C
15.09.2012 02:46 12,1 C 87 % 1010,0 hPa 0,0 l/m 11,2 km/h (2 Bft) W-SW 247 10,0 C 12,1 C
15.09.2012 02:51 12,1 C 87 % 1009,9 hPa 0,0 l/m 31,7 km/h (5 Bft) W 270 10,0 C 12,1 C
15.09.2012 02:56 11,9 C 87 % 1009,9 hPa 0,0 l/m 13,3 km/h (3 Bft) W-SW 247 9,8 C 11,9 C
15.09.2012 03:01 11,9 C 87 % 1009,9 hPa 0,0 l/m 5,8 km/h (2 Bft) W-SW 247 9,8 C 11,9 C
15.09.2012 03:06 11,9 C 87 % 1009,9 hPa 0,0 l/m 7,6 km/h (2 Bft) NW 315 9,8 C 11,9 C
15.09.2012 03:11 11,9 C 87 % 1009,8 hPa 0,0 l/m 5,0 km/h (1 Bft) W-NW 292 9,8 C 11,9 C
15.09.2012 03:16 11,9 C 87 % 1009,8 hPa 0,0 l/m 10,1 km/h (2 Bft) W-SW 247 9,8 C 11,9 C
15.09.2012 03:21 11,9 C 87 % 1009,6 hPa 0,0 l/m 12,6 km/h (3 Bft) W 270 9,8 C 11,9 C
15.09.2012 03:26 11,8 C 87 % 1009,8 hPa 0,0 l/m 3,6 km/h (1 Bft) SW 225 9,7 C 11,8 C
15.09.2012 03:31 11,8 C 87 % 1009,8 hPa 0,0 l/m 19,1 km/h (3 Bft) W 270 9,7 C 11,8 C
15.09.2012 03:36 11,6 C 87 % 1009,9 hPa 0,0 l/m 11,2 km/h (2 Bft) W-SW 247 9,5 C 11,6 C
15.09.2012 03:41 11,6 C 87 % 1010,0 hPa 0,0 l/m 20,2 km/h (4 Bft) W-SW 247 9,5 C 11,6 C
15.09.2012 03:46 11,6 C 88 % 1009,9 hPa 0,0 l/m 7,2 km/h (2 Bft) W 270 9,7 C 11,6 C
15.09.2012 03:51 11,5 C 88 % 1010,0 hPa 0,0 l/m 11,9 km/h (2 Bft) W 270 9,6 C 11,5 C
15.09.2012 03:56 11,5 C 88 % 1010,1 hPa 0,0 l/m 7,9 km/h (2 Bft) W-SW 247 9,6 C 11,5 C
15.09.2012 04:01 11,5 C 88 % 1010,1 hPa 0,0 l/m 21,6 km/h (4 Bft) W-SW 247 9,6 C 11,5 C
15.09.2012 04:06 11,6 C 88 % 1010,1 hPa 0,0 l/m 9,4 km/h (2 Bft) SW 225 9,7 C 11,6 C
15.09.2012 04:11 11,6 C 88 % 1010,1 hPa 0,0 l/m 19,1 km/h (3 Bft) W-SW 247 9,7 C 11,6 C
15.09.2012 04:16 11,6 C 88 % 1010,1 hPa 0,0 l/m 14,8 km/h (3 Bft) W-SW 247 9,7 C 11,6 C
15.09.2012 04:21 11,5 C 88 % 1010,0 hPa 0,0 l/m 13,0 km/h (3 Bft) W 270 9,6 C 11,5 C
15.09.2012 04:26 11,4 C 88 % 1010,1 hPa 0,0 l/m 21,2 km/h (4 Bft) W 270 9,5 C 11,4 C
15.09.2012 04:31 11,4 C 88 % 1010,2 hPa 0,0 l/m 16,9 km/h (3 Bft) W 270 9,5 C 11,4 C
15.09.2012 04:36 11,4 C 88 % 1010,1 hPa 0,0 l/m 7,6 km/h (2 Bft) W 270 9,5 C 11,4 C
15.09.2012 04:41 11,4 C 88 % 1010,2 hPa 0,0 l/m 10,1 km/h (2 Bft) SW 225 9,5 C 11,4 C
15.09.2012 04:46 11,3 C 88 % 1010,3 hPa 0,0 l/m 18,7 km/h (3 Bft) W-SW 247 9,4 C 11,3 C
15.09.2012 04:51 11,3 C 88 % 1010,3 hPa 0,0 l/m 15,5 km/h (3 Bft) W-SW 247 9,4 C 11,3 C
15.09.2012 04:56 11,4 C 89 % 1010,2 hPa 0,0 l/m 9,0 km/h (2 Bft) W 270 9,7 C 11,4 C
15.09.2012 05:01 11,4 C 88 % 1010,2 hPa 0,0 l/m 12,6 km/h (3 Bft) W-SW 247 9,5 C 11,4 C
15.09.2012 05:06 11,4 C 88 % 1010,4 hPa 0,0 l/m 11,5 km/h (2 Bft) W 270 9,5 C 11,4 C
15.09.2012 05:11 11,4 C 88 % 1010,3 hPa 0,0 l/m 14,4 km/h (3 Bft) W-NW 292 9,5 C 11,4 C
15.09.2012 05:16 11,4 C 88 % 1010,5 hPa 0,0 l/m 20,9 km/h (4 Bft) W-SW 247 9,5 C 11,4 C
15.09.2012 05:21 11,4 C 88 % 1010,5 hPa 0,0 l/m 12,6 km/h (3 Bft) W 270 9,5 C 11,4 C
15.09.2012 05:26 11,5 C 88 % 1010,6 hPa 0,0 l/m 19,4 km/h (3 Bft) W 270 9,6 C 11,5 C
15.09.2012 05:31 11,6 C 88 % 1010,6 hPa 0,0 l/m 11,9 km/h (2 Bft) W-NW 292 9,7 C 11,6 C
15.09.2012 05:36 11,6 C 88 % 1010,6 hPa 0,0 l/m 3,2 km/h (1 Bft) W-NW 292 9,7 C 11,6 C
15.09.2012 05:41 11,6 C 88 % 1010,7 hPa 0,0 l/m 20,9 km/h (4 Bft) W-SW 247 9,7 C 11,6 C
15.09.2012 05:46 11,7 C 88 % 1010,7 hPa 0,0 l/m 11,9 km/h (2 Bft) W-SW 247 9,8 C 11,7 C
15.09.2012 05:51 11,8 C 88 % 1010,7 hPa 0,0 l/m 13,3 km/h (3 Bft) W-SW 247 9,9 C 11,8 C
15.09.2012 05:56 11,8 C 88 % 1010,7 hPa 0,0 l/m 13,7 km/h (3 Bft) W-SW 247 9,9 C 11,8 C
15.09.2012 06:01 11,8 C 88 % 1010,8 hPa 0,0 l/m 8,3 km/h (2 Bft) W-NW 292 9,9 C 11,8 C
15.09.2012 06:06 11,8 C 88 % 1010,9 hPa 0,0 l/m 6,5 km/h (2 Bft) W-SW 247 9,9 C 11,8 C
15.09.2012 06:11 11,8 C 88 % 1010,9 hPa 0,0 l/m 20,5 km/h (4 Bft) W-SW 247 9,9 C 11,8 C
15.09.2012 06:16 11,8 C 88 % 1010,9 hPa 0,0 l/m 16,2 km/h (3 Bft) W-SW 247 9,9 C 11,8 C
15.09.2012 06:21 11,9 C 88 % 1011,0 hPa 0,0 l/m 16,9 km/h (3 Bft) SW 225 10,0 C 11,9 C
15.09.2012 06:26 11,9 C 88 % 1011,0 hPa 0,0 l/m 3,2 km/h (1 Bft) W-NW 292 10,0 C 11,9 C
15.09.2012 06:31 11,9 C 88 % 1011,1 hPa 0,0 l/m 14,0 km/h (3 Bft) W-SW 247 10,0 C 11,9 C
15.09.2012 06:36 12,1 C 88 % 1011,0 hPa 0,0 l/m 23,0 km/h (4 Bft) W 270 10,2 C 12,1 C
15.09.2012 06:41 12,1 C 87 % 1011,2 hPa 0,0 l/m 4,0 km/h (1 Bft) W-SW 247 10,0 C 12,1 C
15.09.2012 06:46 11,9 C 87 % 1011,2 hPa 0,0 l/m 8,3 km/h (2 Bft) W 270 9,8 C 11,9 C
15.09.2012 06:51 11,9 C 87 % 1011,3 hPa 0,0 l/m 6,8 km/h (2 Bft) W-SW 247 9,8 C 11,9 C
15.09.2012 06:56 11,9 C 87 % 1011,3 hPa 0,0 l/m 15,5 km/h (3 Bft) W 270 9,8 C 11,9 C
15.09.2012 07:01 11,9 C 87 % 1011,4 hPa 0,0 l/m 6,8 km/h (2 Bft) W 270 9,8 C 11,9 C
15.09.2012 07:06 11,8 C 87 % 1011,5 hPa 0,0 l/m 6,5 km/h (2 Bft) W-NW 292 9,7 C 11,8 C
15.09.2012 07:11 11,8 C 87 % 1011,5 hPa 0,0 l/m 7,2 km/h (2 Bft) W-SW 247 9,7 C 11,8 C
15.09.2012 07:16 11,8 C 87 % 1011,6 hPa 0,0 l/m 9,4 km/h (2 Bft) W 270 9,7 C 11,8 C
15.09.2012 07:21 11,8 C 87 % 1011,6 hPa 0,0 l/m 4,0 km/h (1 Bft) W-SW 247 9,7 C 11,8 C
15.09.2012 07:26 11,8 C 87 % 1011,7 hPa 0,0 l/m 6,5 km/h (2 Bft) W 270 9,7 C 11,8 C
15.09.2012 07:31 11,8 C 87 % 1011,6 hPa 0,0 l/m 7,9 km/h (2 Bft) W-NW 292 9,7 C 11,8 C
15.09.2012 07:36 11,8 C 87 % 1011,7 hPa 0,0 l/m 5,8 km/h (2 Bft) W-NW 292 9,7 C 11,8 C
15.09.2012 07:41 11,9 C 87 % 1011,7 hPa 0,0 l/m 8,3 km/h (2 Bft) W-SW 247 9,8 C 11,9 C
15.09.2012 07:46 11,9 C 87 % 1011,8 hPa 0,0 l/m 3,6 km/h (1 Bft) W 270 9,8 C 11,9 C
15.09.2012 07:51 12,1 C 87 % 1011,9 hPa 0,0 l/m 15,1 km/h (3 Bft) W 270 10,0 C 12,1 C
15.09.2012 07:56 12,1 C 87 % 1011,9 hPa 0,0 l/m 24,1 km/h (4 Bft) W 270 10,0 C 12,1 C
15.09.2012 08:01 12,1 C 87 % 1011,9 hPa 0,0 l/m 6,1 km/h (2 Bft) W 270 10,0 C 12,1 C
15.09.2012 08:06 12,1 C 87 % 1012,0 hPa 0,0 l/m 15,5 km/h (3 Bft) W-SW 247 10,0 C 12,1 C
15.09.2012 08:11 12,1 C 87 % 1012,0 hPa 0,0 l/m 26,6 km/h (4 Bft) W-SW 247 10,0 C 12,1 C
15.09.2012 08:16 12,2 C 87 % 1012,1 hPa 0,0 l/m 19,1 km/h (3 Bft) W-NW 292 10,1 C 12,2 C
15.09.2012 08:21 12,3 C 87 % 1012,2 hPa 0,0 l/m 19,1 km/h (3 Bft) W 270 10,2 C 12,3 C
15.09.2012 08:26 12,4 C 86 % 1012,3 hPa 0,0 l/m 9,4 km/h (2 Bft) W 270 10,1 C 12,4 C
15.09.2012 08:31 12,5 C 86 % 1012,5 hPa 0,0 l/m 2,2 km/h (1 Bft) W 270 10,2 C 12,5 C
15.09.2012 08:36 12,6 C 86 % 1012,5 hPa 0,0 l/m 6,8 km/h (2 Bft) W-SW 247 10,3 C 12,6 C
15.09.2012 08:41 12,6 C 86 % 1012,7 hPa 0,0 l/m 4,0 km/h (1 Bft) W-NW 292 10,3 C 12,6 C
15.09.2012 08:46 12,8 C 85 % 1012,6 hPa 0,0 l/m 0,0 km/h (0 Bft) W-SW 247 10,3 C 12,8 C
15.09.2012 08:51 12,9 C 85 % 1012,7 hPa 0,0 l/m 10,8 km/h (2 Bft) W-NW 292 10,4 C 12,9 C
15.09.2012 08:56 13,1 C 85 % 1012,8 hPa 0,0 l/m 8,3 km/h (2 Bft) W 270 10,6 C 13,1 C
15.09.2012 09:01 13,4 C 85 % 1012,8 hPa 0,0 l/m 15,8 km/h (3 Bft) NW 315 10,9 C 13,4 C
15.09.2012 09:06 13,5 C 84 % 1013,0 hPa 0,0 l/m 7,6 km/h (2 Bft) W 270 10,8 C 13,5 C
15.09.2012 09:11 13,4 C 83 % 1013,0 hPa 0,0 l/m 11,2 km/h (2 Bft) W 270 10,6 C 13,4 C
15.09.2012 09:16 13,4 C 83 % 1013,1 hPa 0,0 l/m 14,4 km/h (3 Bft) W-NW 292 10,6 C 13,4 C
15.09.2012 09:21 13,4 C 83 % 1013,1 hPa 0,0 l/m 4,7 km/h (1 Bft) W-NW 292 10,6 C 13,4 C
15.09.2012 09:26 13,6 C 84 % 1013,2 hPa 0,0 l/m 16,9 km/h (3 Bft) NW 315 10,9 C 13,6 C
15.09.2012 09:31 13,8 C 83 % 1013,3 hPa 0,0 l/m 6,1 km/h (2 Bft) W-NW 292 11,0 C 13,8 C
15.09.2012 09:36 13,9 C 82 % 1013,4 hPa 0,0 l/m 10,1 km/h (2 Bft) W-SW 247 10,9 C 13,9 C
15.09.2012 09:41 13,9 C 82 % 1013,3 hPa 0,0 l/m 7,2 km/h (2 Bft) W-SW 247 10,9 C 13,9 C
15.09.2012 09:46 14,0 C 82 % 1013,4 hPa 0,0 l/m 8,3 km/h (2 Bft) NW 315 11,0 C 14,0 C
15.09.2012 09:51 14,2 C 82 % 1013,5 hPa 0,0 l/m 10,1 km/h (2 Bft) W-NW 292 11,2 C 14,2 C
15.09.2012 09:56 14,2 C 81 % 1013,5 hPa 0,0 l/m 4,7 km/h (1 Bft) W-SW 247 11,0 C 14,2 C
15.09.2012 10:01 14,1 C 81 % 1013,8 hPa 0,0 l/m 23,0 km/h (4 Bft) W 270 10,9 C 14,1 C
15.09.2012 10:06 14,1 C 81 % 1013,8 hPa 0,0 l/m 5,4 km/h (1 Bft) W-SW 247 10,9 C 14,1 C
15.09.2012 10:11 14,1 C 81 % 1013,8 hPa 0,0 l/m 5,8 km/h (2 Bft) W-SW 247 10,9 C 14,1 C
15.09.2012 10:16 14,2 C 81 % 1013,7 hPa 0,0 l/m 26,3 km/h (4 Bft) SW 225 11,0 C 14,2 C
15.09.2012 10:21 14,3 C 81 % 1013,8 hPa 0,0 l/m 14,8 km/h (3 Bft) W-NW 292 11,1 C 14,3 C
15.09.2012 10:26 14,3 C 81 % 1013,8 hPa 0,0 l/m 7,6 km/h (2 Bft) W-SW 247 11,1 C 14,3 C
15.09.2012 10:31 14,5 C 81 % 1014,0 hPa 0,0 l/m 5,0 km/h (1 Bft) W-NW 292 11,3 C 14,5 C
15.09.2012 10:36 14,6 C 80 % 1014,0 hPa 0,0 l/m 31,3 km/h (5 Bft) W 270 11,2 C 14,6 C
15.09.2012 10:41 14,7 C 80 % 1014,1 hPa 0,0 l/m 7,6 km/h (2 Bft) W 270 11,3 C 14,7 C
15.09.2012 10:46 14,9 C 80 % 1014,2 hPa 0,0 l/m 10,4 km/h (2 Bft) W 270 11,5 C 14,9 C
15.09.2012 10:51 15,1 C 79 % 1014,2 hPa 0,0 l/m 7,9 km/h (2 Bft) W 270 11,5 C 15,1 C
15.09.2012 10:56 15,4 C 78 % 1014,2 hPa 0,0 l/m 4,0 km/h (1 Bft) W 270 11,6 C 15,4 C
15.09.2012 11:01 15,5 C 78 % 1014,2 hPa 0,0 l/m 5,8 km/h (2 Bft) SW 225 11,7 C 15,5 C
15.09.2012 11:06 15,6 C 77 % 1014,2 hPa 0,0 l/m 6,5 km/h (2 Bft) W-NW 292 11,6 C 15,6 C
15.09.2012 11:11 15,9 C 76 % 1014,3 hPa 0,0 l/m 11,2 km/h (2 Bft) W-NW 292 11,7 C 15,9 C
15.09.2012 11:16 16,1 C 75 % 1014,2 hPa 0,0 l/m 3,6 km/h (1 Bft) N 360 11,7 C 16,1 C
15.09.2012 11:21 16,3 C 74 % 1014,3 hPa 0,0 l/m 2,5 km/h (1 Bft) W-NW 292 11,7 C 16,3 C
15.09.2012 11:26 16,4 C 73 % 1014,3 hPa 0,0 l/m 5,0 km/h (1 Bft) W-SW 247 11,5 C 16,4 C
15.09.2012 11:31 16,4 C 73 % 1014,3 hPa 0,0 l/m 20,9 km/h (4 Bft) NW 315 11,5 C 16,4 C
15.09.2012 11:36 16,4 C 72 % 1014,4 hPa 0,0 l/m 9,7 km/h (2 Bft) W-NW 292 11,3 C 16,4 C
15.09.2012 11:41 16,5 C 72 % 1014,4 hPa 0,0 l/m 12,6 km/h (3 Bft) W-SW 247 11,4 C 16,5 C
15.09.2012 11:46 16,7 C 71 % 1014,5 hPa 0,0 l/m 7,9 km/h (2 Bft) W-NW 292 11,4 C 16,7 C
15.09.2012 11:51 16,6 C 72 % 1014,5 hPa 0,0 l/m 7,9 km/h (2 Bft) W-NW 292 11,5 C 16,6 C
15.09.2012 11:56 16,6 C 72 % 1014,5 hPa 0,0 l/m 12,2 km/h (2 Bft) W-NW 292 11,5 C 16,6 C
15.09.2012 12:01 16,6 C 71 % 1014,5 hPa 0,0 l/m 14,0 km/h (3 Bft) W-NW 292 11,3 C 16,6 C
15.09.2012 12:06 16,5 C 71 % 1014,6 hPa 0,0 l/m 15,8 km/h (3 Bft) NW 315 11,2 C 16,5 C
15.09.2012 12:11 16,6 C 71 % 1014,6 hPa 0,0 l/m 6,1 km/h (2 Bft) NW 315 11,3 C 16,6 C
15.09.2012 12:16 16,6 C 70 % 1014,6 hPa 0,0 l/m 14,4 km/h (3 Bft) NW 315 11,1 C 16,6 C
15.09.2012 12:21 16,6 C 70 % 1014,6 hPa 0,0 l/m 15,8 km/h (3 Bft) NW 315 11,1 C 16,6 C
15.09.2012 12:26 16,8 C 70 % 1014,6 hPa 0,0 l/m 19,1 km/h (3 Bft) NW 315 11,3 C 16,8 C
15.09.2012 12:31 17,0 C 69 % 1014,6 hPa 0,0 l/m 9,0 km/h (2 Bft) W-SW 247 11,3 C 17,0 C
15.09.2012 12:36 17,2 C 68 % 1014,6 hPa 0,0 l/m 16,9 km/h (3 Bft) W-NW 292 11,2 C 17,2 C
15.09.2012 12:41 17,3 C 67 % 1014,6 hPa 0,0 l/m 16,6 km/h (3 Bft) NW 315 11,1 C 17,3 C
15.09.2012 12:46 17,6 C 66 % 1014,5 hPa 0,0 l/m 23,0 km/h (4 Bft) NW 315 11,2 C 17,6 C
15.09.2012 12:51 17,6 C 64 % 1014,5 hPa 0,0 l/m 27,7 km/h (4 Bft) W 270 10,7 C 17,6 C
15.09.2012 12:56 17,5 C 64 % 1014,5 hPa 0,0 l/m 8,3 km/h (2 Bft) W-NW 292 10,6 C 17,5 C
15.09.2012 13:01 17,6 C 65 % 1014,5 hPa 0,0 l/m 11,9 km/h (2 Bft) W-NW 292 10,9 C 17,6 C
15.09.2012 13:06 17,8 C 64 % 1014,6 hPa 0,0 l/m 10,4 km/h (2 Bft) W-NW 292 10,9 C 17,8 C
15.09.2012 13:11 17,9 C 65 % 1014,5 hPa 0,0 l/m 14,8 km/h (3 Bft) W-NW 292 11,2 C 17,9 C
15.09.2012 13:16 18,3 C 64 % 1014,6 hPa 0,0 l/m 15,5 km/h (3 Bft) NW 315 11,4 C 18,3 C
15.09.2012 13:21 18,4 C 62 % 1014,6 hPa 0,0 l/m 11,9 km/h (2 Bft) W-NW 292 11,0 C 18,4 C
15.09.2012 13:26 18,4 C 61 % 1014,6 hPa 0,0 l/m 13,7 km/h (3 Bft) W 270 10,7 C 18,4 C
15.09.2012 13:31 18,5 C 62 % 1014,5 hPa 0,0 l/m 30,6 km/h (5 Bft) W-SW 247 11,1 C 18,5 C
15.09.2012 13:36 18,7 C 61 % 1014,8 hPa 0,0 l/m 14,0 km/h (3 Bft) NW 315 11,0 C 18,7 C
15.09.2012 13:41 18,7 C 61 % 1014,8 hPa 0,0 l/m 16,9 km/h (3 Bft) W-NW 292 11,0 C 18,7 C
15.09.2012 13:46 18,7 C 61 % 1014,7 hPa 0,0 l/m 14,8 km/h (3 Bft) W-NW 292 11,0 C 18,7 C
15.09.2012 13:51 18,8 C 61 % 1014,6 hPa 0,0 l/m 8,3 km/h (2 Bft) W 270 11,1 C 18,8 C
15.09.2012 13:56 18,6 C 60 % 1014,8 hPa 0,0 l/m 25,6 km/h (4 Bft) NW 315 10,7 C 18,6 C
15.09.2012 14:01 18,3 C 61 % 1014,9 hPa 0,0 l/m 5,0 km/h (1 Bft) N 360 10,6 C 18,3 C
15.09.2012 14:06 18,1 C 61 % 1014,8 hPa 0,0 l/m 16,6 km/h (3 Bft) W-NW 292 10,5 C 18,1 C
15.09.2012 14:11 17,9 C 61 % 1014,8 hPa 0,0 l/m 6,8 km/h (2 Bft) NW 315 10,3 C 17,9 C
15.09.2012 14:16 17,9 C 62 % 1014,9 hPa 0,0 l/m 12,6 km/h (3 Bft) NW 315 10,5 C 17,9 C
15.09.2012 14:21 17,9 C 61 % 1014,9 hPa 0,0 l/m 9,4 km/h (2 Bft) W 270 10,3 C 17,9 C
15.09.2012 14:26 17,9 C 61 % 1014,8 hPa 0,0 l/m 20,5 km/h (4 Bft) W-NW 292 10,3 C 17,9 C
15.09.2012 14:31 17,9 C 62 % 1014,9 hPa 0,0 l/m 19,4 km/h (3 Bft) W 270 10,5 C 17,9 C
15.09.2012 14:36 18,3 C 62 % 1014,9 hPa 0,0 l/m 22,3 km/h (4 Bft) W 270 10,9 C 18,3 C
15.09.2012 14:41 18,5 C 60 % 1015,0 hPa 0,0 l/m 13,7 km/h (3 Bft) W-NW 292 10,6 C 18,5 C
15.09.2012 14:46 18,6 C 59 % 1015,0 hPa 0,0 l/m 14,8 km/h (3 Bft) W 270 10,4 C 18,6 C
15.09.2012 14:51 18,5 C 60 % 1015,0 hPa 0,0 l/m 16,2 km/h (3 Bft) N-NW 337 10,6 C 18,5 C
15.09.2012 14:56 18,7 C 59 % 1015,2 hPa 0,0 l/m 8,6 km/h (2 Bft) W-NW 292 10,5 C 18,7 C
15.09.2012 15:01 18,9 C 59 % 1015,2 hPa 0,0 l/m 14,8 km/h (3 Bft) NW 315 10,7 C 18,9 C
15.09.2012 15:06 18,9 C 59 % 1015,3 hPa 0,0 l/m 13,7 km/h (3 Bft) NW 315 10,7 C 18,9 C
15.09.2012 15:11 18,5 C 60 % 1015,2 hPa 0,0 l/m 17,3 km/h (3 Bft) W-NW 292 10,6 C 18,5 C
15.09.2012 15:16 18,1 C 61 % 1015,2 hPa 0,0 l/m 11,5 km/h (2 Bft) NW 315 10,5 C 18,1 C
15.09.2012 15:21 17,8 C 62 % 1015,3 hPa 0,0 l/m 8,6 km/h (2 Bft) W-SW 247 10,4 C 17,8 C
15.09.2012 15:26 17,4 C 63 % 1015,4 hPa 0,0 l/m 13,7 km/h (3 Bft) W-NW 292 10,3 C 17,4 C
15.09.2012 15:31 17,2 C 64 % 1015,5 hPa 0,0 l/m 10,1 km/h (2 Bft) W-NW 292 10,3 C 17,2 C
15.09.2012 15:36 17,0 C 64 % 1015,5 hPa 0,0 l/m 21,2 km/h (4 Bft) NW 315 10,1 C 17,0 C
15.09.2012 15:41 16,9 C 65 % 1015,5 hPa 0,0 l/m 13,7 km/h (3 Bft) NW 315 10,3 C 16,9 C
15.09.2012 15:46 16,9 C 65 % 1015,6 hPa 0,0 l/m 5,4 km/h (1 Bft) NW 315 10,3 C 16,9 C
15.09.2012 15:51 17,0 C 66 % 1015,5 hPa 0,0 l/m 13,3 km/h (3 Bft) NW 315 10,6 C 17,0 C
15.09.2012 15:56 17,1 C 66 % 1015,3 hPa 0,0 l/m 10,1 km/h (2 Bft) N-NW 337 10,7 C 17,1 C
15.09.2012 16:01 17,3 C 66 % 1015,3 hPa 0,0 l/m 8,3 km/h (2 Bft) W 270 10,9 C 17,3 C
15.09.2012 16:06 17,4 C 66 % 1015,4 hPa 0,0 l/m 9,4 km/h (2 Bft) W-SW 247 11,0 C 17,4 C
15.09.2012 16:11 17,6 C 65 % 1015,4 hPa 0,0 l/m 19,1 km/h (3 Bft) NW 315 10,9 C 17,6 C
15.09.2012 16:16 17,8 C 64 % 1015,4 hPa 0,0 l/m 5,0 km/h (1 Bft) N-NW 337 10,9 C 17,8 C
15.09.2012 16:21 17,8 C 63 % 1015,5 hPa 0,0 l/m 6,1 km/h (2 Bft) W 270 10,7 C 17,8 C
15.09.2012 16:26 17,8 C 62 % 1015,5 hPa 0,0 l/m 22,3 km/h (4 Bft) NW 315 10,4 C 17,8 C
15.09.2012 16:31 17,7 C 63 % 1015,5 hPa 0,0 l/m 9,4 km/h (2 Bft) N-NW 337 10,6 C 17,7 C
15.09.2012 16:36 17,6 C 62 % 1015,6 hPa 0,0 l/m 12,2 km/h (2 Bft) NW 315 10,2 C 17,6 C
15.09.2012 16:41 17,6 C 63 % 1015,5 hPa 0,0 l/m 7,6 km/h (2 Bft) W-NW 292 10,5 C 17,6 C
15.09.2012 16:46 17,5 C 62 % 1015,6 hPa 0,0 l/m 7,2 km/h (2 Bft) N-NW 337 10,1 C 17,5 C
15.09.2012 16:51 17,5 C 62 % 1015,7 hPa 0,0 l/m 12,2 km/h (2 Bft) W 270 10,1 C 17,5 C
15.09.2012 16:56 17,4 C 62 % 1015,7 hPa 0,0 l/m 16,9 km/h (3 Bft) W-NW 292 10,0 C 17,4 C
15.09.2012 17:01 17,4 C 63 % 1015,7 hPa 0,0 l/m 3,2 km/h (1 Bft) W-NW 292 10,3 C 17,4 C
15.09.2012 17:06 17,3 C 63 % 1015,7 hPa 0,0 l/m 7,9 km/h (2 Bft) NW 315 10,2 C 17,3 C
15.09.2012 17:11 17,3 C 63 % 1015,8 hPa 0,0 l/m 10,8 km/h (2 Bft) W-SW 247 10,2 C 17,3 C
15.09.2012 17:16 17,3 C 64 % 1015,9 hPa 0,0 l/m 9,4 km/h (2 Bft) NW 315 10,4 C 17,3 C
15.09.2012 17:21 17,3 C 64 % 1015,9 hPa 0,0 l/m 4,0 km/h (1 Bft) S 180 10,4 C 17,3 C
15.09.2012 17:26 17,4 C 64 % 1016,0 hPa 0,0 l/m 6,5 km/h (2 Bft) W-NW 292 10,5 C 17,4 C
15.09.2012 17:31 17,3 C 65 % 1015,9 hPa 0,0 l/m 12,2 km/h (2 Bft) W 270 10,7 C 17,3 C
15.09.2012 17:36 17,3 C 65 % 1016,0 hPa 0,0 l/m 5,8 km/h (2 Bft) W 270 10,7 C 17,3 C
15.09.2012 17:41 17,3 C 66 % 1016,1 hPa 0,0 l/m 6,1 km/h (2 Bft) W 270 10,9 C 17,3 C
15.09.2012 17:46 17,1 C 66 % 1016,1 hPa 0,0 l/m 14,0 km/h (3 Bft) W-SW 247 10,7 C 17,1 C
15.09.2012 17:51 16,9 C 67 % 1016,1 hPa 0,0 l/m 7,6 km/h (2 Bft) W-SW 247 10,7 C 16,9 C
15.09.2012 17:56 16,9 C 67 % 1016,2 hPa 0,0 l/m 17,6 km/h (3 Bft) W-NW 292 10,7 C 16,9 C
15.09.2012 18:01 16,7 C 67 % 1016,3 hPa 0,0 l/m 8,3 km/h (2 Bft) W 270 10,5 C 16,7 C
15.09.2012 18:06 16,6 C 67 % 1016,3 hPa 0,0 l/m 15,5 km/h (3 Bft) W-NW 292 10,4 C 16,6 C
15.09.2012 18:11 16,5 C 68 % 1016,3 hPa 0,0 l/m 11,5 km/h (2 Bft) W-NW 292 10,6 C 16,5 C
15.09.2012 18:16 16,4 C 68 % 1016,3 hPa 0,0 l/m 2,5 km/h (1 Bft) W-SW 247 10,5 C 16,4 C
15.09.2012 18:21 16,4 C 69 % 1016,3 hPa 0,0 l/m 11,2 km/h (2 Bft) W-SW 247 10,7 C 16,4 C
15.09.2012 18:26 16,4 C 69 % 1016,5 hPa 0,0 l/m 17,6 km/h (3 Bft) NW 315 10,7 C 16,4 C
15.09.2012 18:31 16,4 C 69 % 1016,5 hPa 0,0 l/m 5,4 km/h (1 Bft) W 270 10,7 C 16,4 C
15.09.2012 18:36 16,3 C 69 % 1016,4 hPa 0,0 l/m 3,2 km/h (1 Bft) W 270 10,6 C 16,3 C
15.09.2012 18:41 16,3 C 70 % 1016,4 hPa 0,0 l/m 4,0 km/h (1 Bft) W 270 10,8 C 16,3 C
15.09.2012 18:46 16,2 C 70 % 1016,3 hPa 0,0 l/m 5,8 km/h (2 Bft) NW 315 10,7 C 16,2 C
15.09.2012 18:51 16,1 C 70 % 1016,4 hPa 0,0 l/m 6,1 km/h (2 Bft) W-NW 292 10,6 C 16,1 C
15.09.2012 18:56 16,1 C 70 % 1016,4 hPa 0,0 l/m 13,7 km/h (3 Bft) W-SW 247 10,6 C 16,1 C
15.09.2012 19:01 16,1 C 71 % 1016,4 hPa 0,0 l/m 6,1 km/h (2 Bft) W-SW 247 10,8 C 16,1 C
15.09.2012 19:06 16,1 C 71 % 1016,6 hPa 0,0 l/m 4,0 km/h (1 Bft) W-SW 247 10,8 C 16,1 C
15.09.2012 19:11 16,1 C 71 % 1016,6 hPa 0,0 l/m 0,0 km/h (0 Bft) W-NW 292 10,8 C 16,1 C
15.09.2012 19:16 15,9 C 72 % 1016,8 hPa 0,0 l/m 2,9 km/h (1 Bft) W 270 10,9 C 15,9 C
15.09.2012 19:21 15,9 C 72 % 1016,7 hPa 0,0 l/m 13,3 km/h (3 Bft) W-SW 247 10,9 C 15,9 C
15.09.2012 19:26 15,9 C 72 % 1016,7 hPa 0,0 l/m 5,0 km/h (1 Bft) W-SW 247 10,9 C 15,9 C
15.09.2012 19:31 15,9 C 72 % 1016,8 hPa 0,0 l/m 9,0 km/h (2 Bft) W 270 10,9 C 15,9 C
15.09.2012 19:36 15,9 C 73 % 1016,7 hPa 0,0 l/m 1,8 km/h (1 Bft) W 270 11,1 C 15,9 C
15.09.2012 19:41 15,9 C 73 % 1016,8 hPa 0,0 l/m 2,5 km/h (1 Bft) W-SW 247 11,1 C 15,9 C
15.09.2012 19:46 15,8 C 73 % 1016,8 hPa 0,0 l/m 3,2 km/h (1 Bft) W 270 11,0 C 15,8 C
15.09.2012 19:51 15,8 C 73 % 1016,9 hPa 0,0 l/m 4,3 km/h (1 Bft) W-SW 247 11,0 C 15,8 C
15.09.2012 19:56 15,8 C 74 % 1017,0 hPa 0,0 l/m 1,8 km/h (1 Bft) W 270 11,2 C 15,8 C
15.09.2012 20:01 15,8 C 74 % 1017,1 hPa 0,0 l/m 1,8 km/h (1 Bft) W 270 11,2 C 15,8 C
15.09.2012 20:06 15,8 C 74 % 1017,1 hPa 0,0 l/m 5,4 km/h (1 Bft) W 270 11,2 C 15,8 C
15.09.2012 20:11 15,6 C 74 % 1017,2 hPa 0,0 l/m 5,8 km/h (2 Bft) W-NW 292 11,0 C 15,6 C
15.09.2012 20:16 15,6 C 74 % 1017,1 hPa 0,0 l/m 5,4 km/h (1 Bft) W 270 11,0 C 15,6 C
15.09.2012 20:21 15,6 C 75 % 1017,4 hPa 0,0 l/m 0,0 km/h (0 Bft) W-NW 292 11,2 C 15,6 C
15.09.2012 20:26 15,6 C 75 % 1017,4 hPa 0,0 l/m 2,2 km/h (1 Bft) W 270 11,2 C 15,6 C
15.09.2012 20:31 15,6 C 75 % 1017,4 hPa 0,0 l/m 1,4 km/h (1 Bft) W-NW 292 11,2 C 15,6 C
15.09.2012 20:36 15,5 C 75 % 1017,4 hPa 0,0 l/m 0,0 km/h (0 Bft) W-NW 292 11,1 C 15,5 C
15.09.2012 20:41 15,5 C 76 % 1017,4 hPa 0,0 l/m 0,0 km/h (0 Bft) W-NW 292 11,3 C 15,5 C
15.09.2012 20:46 15,4 C 75 % 1017,5 hPa 0,0 l/m 3,6 km/h (1 Bft) W-NW 292 11,0 C 15,4 C
15.09.2012 20:51 15,4 C 76 % 1017,3 hPa 0,0 l/m 2,9 km/h (1 Bft) W 270 11,2 C 15,4 C
15.09.2012 20:56 15,4 C 76 % 1017,2 hPa 0,0 l/m 2,2 km/h (1 Bft) W 270 11,2 C 15,4 C
15.09.2012 21:01 15,4 C 76 % 1017,2 hPa 0,0 l/m 6,1 km/h (2 Bft) W 270 11,2 C 15,4 C
15.09.2012 21:06 15,4 C 76 % 1017,4 hPa 0,0 l/m 4,3 km/h (1 Bft) W-SW 247 11,2 C 15,4 C
15.09.2012 21:11 15,3 C 76 % 1017,2 hPa 0,0 l/m 0,0 km/h (0 Bft) W-SW 247 11,1 C 15,3 C
15.09.2012 21:16 15,3 C 77 % 1017,3 hPa 0,0 l/m 4,7 km/h (1 Bft) W-SW 247 11,3 C 15,3 C
15.09.2012 21:21 15,3 C 77 % 1017,2 hPa 0,0 l/m 2,5 km/h (1 Bft) W-SW 247 11,3 C 15,3 C
15.09.2012 21:26 15,3 C 77 % 1017,1 hPa 0,0 l/m 2,9 km/h (1 Bft) W-SW 247 11,3 C 15,3 C
15.09.2012 21:31 15,3 C 77 % 1017,1 hPa 0,0 l/m 4,7 km/h (1 Bft) W-SW 247 11,3 C 15,3 C
15.09.2012 21:36 15,3 C 77 % 1017,1 hPa 0,0 l/m 4,0 km/h (1 Bft) W-SW 247 11,3 C 15,3 C
15.09.2012 21:41 15,2 C 77 % 1017,2 hPa 0,0 l/m 4,0 km/h (1 Bft) W-SW 247 11,2 C 15,2 C
15.09.2012 21:46 15,2 C 77 % 1017,1 hPa 0,0 l/m 5,0 km/h (1 Bft) W-SW 247 11,2 C 15,2 C
15.09.2012 21:51 15,2 C 77 % 1017,2 hPa 0,0 l/m 4,3 km/h (1 Bft) W-SW 247 11,2 C 15,2 C
15.09.2012 21:56 15,2 C 77 % 1017,2 hPa 0,0 l/m 5,8 km/h (2 Bft) SW 225 11,2 C 15,2 C
15.09.2012 22:01 15,2 C 78 % 1017,2 hPa 0,0 l/m 4,3 km/h (1 Bft) W 270 11,4 C 15,2 C
15.09.2012 22:06 15,2 C 78 % 1017,3 hPa 0,0 l/m 5,0 km/h (1 Bft) SW 225 11,4 C 15,2 C
15.09.2012 22:11 15,2 C 78 % 1017,3 hPa 0,0 l/m 4,7 km/h (1 Bft) SW 225 11,4 C 15,2 C
15.09.2012 22:16 15,2 C 78 % 1017,4 hPa 0,0 l/m 7,9 km/h (2 Bft) W-SW 247 11,4 C 15,2 C
15.09.2012 22:21 15,2 C 77 % 1017,5 hPa 0,0 l/m 4,7 km/h (1 Bft) W-SW 247 11,2 C 15,2 C
15.09.2012 22:26 15,2 C 77 % 1017,4 hPa 0,0 l/m 11,9 km/h (2 Bft) W 270 11,2 C 15,2 C
15.09.2012 22:31 15,2 C 77 % 1017,5 hPa 0,0 l/m 6,5 km/h (2 Bft) W 270 11,2 C 15,2 C
15.09.2012 22:36 15,2 C 77 % 1017,5 hPa 0,0 l/m 12,2 km/h (2 Bft) W-SW 247 11,2 C 15,2 C
15.09.2012 22:41 15,2 C 77 % 1017,6 hPa 0,0 l/m 3,6 km/h (1 Bft) W 270 11,2 C 15,2 C
15.09.2012 22:46 15,2 C 77 % 1017,5 hPa 0,0 l/m 5,0 km/h (1 Bft) W-SW 247 11,2 C 15,2 C
15.09.2012 22:51 15,2 C 77 % 1017,5 hPa 0,0 l/m 7,2 km/h (2 Bft) W-SW 247 11,2 C 15,2 C
15.09.2012 22:56 15,2 C 76 % 1017,5 hPa 0,0 l/m 4,7 km/h (1 Bft) W-SW 247 11,0 C 15,2 C
15.09.2012 23:01 15,2 C 76 % 1017,6 hPa 0,0 l/m 10,4 km/h (2 Bft) W-SW 247 11,0 C 15,2 C
15.09.2012 23:06 15,2 C 76 % 1017,6 hPa 0,0 l/m 4,0 km/h (1 Bft) W-SW 247 11,0 C 15,2 C
15.09.2012 23:11 15,2 C 76 % 1017,6 hPa 0,0 l/m 5,4 km/h (1 Bft) W-SW 247 11,0 C 15,2 C
15.09.2012 23:16 15,2 C 76 % 1017,7 hPa 0,0 l/m 7,6 km/h (2 Bft) W-SW 247 11,0 C 15,2 C
15.09.2012 23:21 15,2 C 76 % 1017,6 hPa 0,0 l/m 3,6 km/h (1 Bft) SW 225 11,0 C 15,2 C
15.09.2012 23:26 15,2 C 76 % 1017,7 hPa 0,0 l/m 4,0 km/h (1 Bft) W-SW 247 11,0 C 15,2 C
15.09.2012 23:31 15,2 C 76 % 1017,8 hPa 0,0 l/m 11,2 km/h (2 Bft) W-SW 247 11,0 C 15,2 C
15.09.2012 23:36 15,2 C 76 % 1017,8 hPa 0,0 l/m 6,5 km/h (2 Bft) W-SW 247 11,0 C 15,2 C
15.09.2012 23:41 15,2 C 76 % 1017,7 hPa 0,0 l/m 5,0 km/h (1 Bft) W-SW 247 11,0 C 15,2 C
15.09.2012 23:46 15,2 C 76 % 1017,8 hPa 0,0 l/m 7,9 km/h (2 Bft) W-SW 247 11,0 C 15,2 C
15.09.2012 23:51 15,2 C 76 % 1017,8 hPa 0,0 l/m 7,2 km/h (2 Bft) W-SW 247 11,0 C 15,2 C
15.09.2012 23:56 15,2 C 76 % 1017,8 hPa 0,0 l/m 6,1 km/h (2 Bft) W-SW 247 11,0 C 15,2 C
_ Min-Zeit 04:46 14:46 00:16 - 08:46 - - 04:46 04:46
Minimum _ 11,3 C 59 % 1008,5 hPa - 0,0 km/h (0 Bft) - - 9,4 C 11,3 C
_ Max-Zeit 15:01 04:56 23:31 00:01 02:51 - - 11:01 15:01
Maximum _ 18,9 C 89 % 1017,8 hPa 0,0 l/m 31,7 km/h
W (5 Bft)
- - 11,7 C 18,9 C
Durchschnitt _ 14,7 C 77 % 1013,7 hPa #0,0 l/m 10,2 km/h (2 Bft) W-SW - 10,5 C 14,7 C
(c) by David Heller